createdAt,value
2023-03-18T00:02:38.209Z,96848.13
2023-03-18T00:05:40.757Z,96849.06
2023-03-18T00:08:45.261Z,96848.34
2023-03-18T00:11:47.063Z,96841.34
2023-03-18T00:14:48.617Z,96839.03
2023-03-18T00:17:50.135Z,96848.38
2023-03-18T00:20:51.649Z,96842.84
2023-03-18T00:23:56.468Z,96844.34
2023-03-18T00:26:58.115Z,96847.75
2023-03-18T00:29:59.639Z,96853.22
2023-03-18T00:33:01.231Z,96847.25
2023-03-18T00:36:03.065Z,96851.75
2023-03-18T00:39:04.799Z,96858.59
2023-03-18T00:42:10.716Z,96852.38
2023-03-18T00:45:12.292Z,96857.13
2023-03-18T00:48:14.463Z,96856.66
2023-03-18T00:51:17.932Z,96857.34
2023-03-18T00:54:20.861Z,96857.72
2023-03-18T00:57:24.556Z,96863.47
2023-03-18T01:00:26.277Z,96863.94
2023-03-18T01:03:27.840Z,96861.19
2023-03-18T01:06:32.520Z,96857.31
2023-03-18T01:09:34.438Z,96860.06
2023-03-18T01:12:37.600Z,96858.56
2023-03-18T01:15:40.479Z,96865.09
2023-03-18T01:18:42.600Z,96862.84
2023-03-18T01:21:44.196Z,96865.66
2023-03-18T01:24:47.138Z,96858.31
2023-03-18T01:27:49.878Z,96847.56
2023-03-18T01:30:51.629Z,96859.59
2023-03-18T01:33:56.074Z,96846.03
2023-03-18T01:36:57.969Z,96851.91
2023-03-18T01:40:02.837Z,96848.53
2023-03-18T01:43:18.004Z,96835.59
2023-03-18T01:46:30.457Z,96842.22
2023-03-18T01:49:39.430Z,96841.06
2023-03-18T01:52:43.474Z,96847.25
2023-03-18T01:55:47.156Z,96844.72
2023-03-18T01:58:52.506Z,96836.84
2023-03-18T02:02:01.232Z,96833.25
2023-03-18T02:05:06.864Z,96823.38
2023-03-18T02:08:08.399Z,96824.16
2023-03-18T02:11:15.960Z,96831.78
2023-03-18T02:14:21.912Z,96822.41
2023-03-18T02:17:27.960Z,96813.84
2023-03-18T02:20:45.921Z,96818.63
2023-03-18T02:24:03.290Z,96816.66
2023-03-18T02:27:25.626Z,96819.94
2023-03-18T02:30:34.588Z,96820.38
2023-03-18T02:33:40.445Z,96825.66
2023-03-18T02:36:42.632Z,96822.81
2023-03-18T02:39:44.781Z,96821.81
2023-03-18T02:42:48.287Z,96817.09
2023-03-18T02:46:07.108Z,96819.34
2023-03-18T02:49:09.328Z,96813.41
2023-03-18T02:52:11.968Z,96808.09
2023-03-18T02:55:14.146Z,96826.25
2023-03-18T02:58:16.503Z,96822.59
2023-03-18T03:01:19.609Z,96828.88
2023-03-18T03:04:23.806Z,96832.56
2023-03-18T03:07:27.810Z,96822.53
2023-03-18T03:10:31.640Z,96826.19
2023-03-18T03:13:33.540Z,96825.97
2023-03-18T03:16:36.164Z,96820.78
2023-03-18T03:19:38.256Z,96825.47
2023-03-18T03:22:39.791Z,96830.97
2023-03-18T03:25:41.933Z,96832.78
2023-03-18T03:28:44.476Z,96825.00
2023-03-18T03:31:46.347Z,96819.22
2023-03-18T03:34:49.132Z,96826.94
2023-03-18T03:37:50.657Z,96832.81
2023-03-18T03:40:53.859Z,96825.03
2023-03-18T03:43:55.422Z,96832.09
2023-03-18T03:46:56.986Z,96828.13
2023-03-18T03:49:59.241Z,96829.88
2023-03-18T03:53:00.904Z,96838.28
2023-03-18T03:56:04.374Z,96836.78
2023-03-18T03:59:06.011Z,96825.63
2023-03-18T04:02:27.873Z,96825.66
2023-03-18T04:05:30.732Z,96830.88
2023-03-18T04:08:34.282Z,96835.25
2023-03-18T04:11:36.736Z,96835.00
2023-03-18T04:14:38.352Z,96834.34
2023-03-18T04:17:40.722Z,96836.00
2023-03-18T04:20:42.577Z,96836.78
2023-03-18T04:23:59.001Z,96831.03
2023-03-18T04:27:01.194Z,96835.69
2023-03-18T04:30:03.769Z,96835.69
2023-03-18T04:33:12.903Z,96830.06
2023-03-18T04:36:15.727Z,96845.44
2023-03-18T04:39:17.697Z,96842.81
2023-03-18T04:42:19.639Z,96850.03
2023-03-18T04:45:21.395Z,96840.69
2023-03-18T04:48:23.432Z,96851.75
2023-03-18T04:51:27.505Z,96850.75
2023-03-18T04:54:30.875Z,96843.53
2023-03-18T04:57:38.418Z,96852.78
2023-03-18T05:00:43.890Z,96857.31
2023-03-18T05:03:53.724Z,96851.53
2023-03-18T05:06:58.243Z,96839.75
2023-03-18T05:10:09.745Z,96847.13
2023-03-18T05:13:11.570Z,96841.44
2023-03-18T05:16:13.651Z,96839.19
2023-03-18T05:19:15.671Z,96839.38
2023-03-18T05:22:25.296Z,96849.22
2023-03-18T05:25:48.968Z,96853.56
2023-03-18T05:28:51.406Z,96846.38
2023-03-18T05:32:04.331Z,96843.63
2023-03-18T05:35:06.515Z,96848.94
2023-03-18T05:38:17.197Z,96852.00
2023-03-18T05:41:19.397Z,96844.06
2023-03-18T05:44:21.859Z,96856.53
2023-03-18T05:47:24.704Z,96854.50
2023-03-18T05:50:41.886Z,96853.25
2023-03-18T05:53:46.688Z,96866.72
2023-03-18T05:56:55.260Z,96866.53
2023-03-18T05:59:57.096Z,96871.84
2023-03-18T06:03:00.042Z,96875.34
2023-03-18T06:06:02.065Z,96878.19
2023-03-18T06:09:04.161Z,96865.94
2023-03-18T06:12:06.060Z,96871.03
2023-03-18T06:15:09.007Z,96884.28
2023-03-18T06:18:11.036Z,96878.97
2023-03-18T06:21:13.206Z,96880.41
2023-03-18T06:24:15.293Z,96886.53
2023-03-18T06:27:17.529Z,96882.00
2023-03-18T06:30:22.167Z,96895.03
2023-03-18T06:33:25.847Z,96889.16
2023-03-18T06:36:27.926Z,96892.78
2023-03-18T06:39:29.778Z,96898.56
2023-03-18T06:42:33.296Z,96901.41
2023-03-18T06:45:48.316Z,96893.66
2023-03-18T06:48:50.000Z,96892.97
2023-03-18T06:51:57.217Z,96898.41
2023-03-18T06:54:58.967Z,96911.75
2023-03-18T06:58:00.760Z,96905.44
2023-03-18T07:01:12.560Z,96910.66
2023-03-18T07:04:16.969Z,96896.59
2023-03-18T07:07:19.219Z,96908.81
2023-03-18T07:10:23.651Z,96907.81
2023-03-18T07:13:28.747Z,96905.94
2023-03-18T07:16:30.834Z,96907.25
2023-03-18T07:19:33.312Z,96902.03
2023-03-18T07:22:35.090Z,96900.66
2023-03-18T07:25:36.837Z,96899.47
2023-03-18T07:28:38.690Z,96902.31
2023-03-18T07:31:40.292Z,96912.09
2023-03-18T07:34:42.546Z,96915.91
2023-03-18T07:37:44.130Z,96918.78
2023-03-18T07:40:46.384Z,96917.69
2023-03-18T07:43:48.531Z,96914.63
2023-03-18T07:46:50.050Z,96921.34
2023-03-18T07:49:52.806Z,96920.19
2023-03-18T07:52:54.262Z,96921.13
2023-03-18T07:55:55.937Z,96914.97
2023-03-18T07:58:57.453Z,96925.66
2023-03-18T08:01:58.972Z,96919.63
2023-03-18T08:05:00.659Z,96922.75
2023-03-18T08:08:02.580Z,96917.38
2023-03-18T08:11:04.205Z,96921.53
2023-03-18T08:14:05.693Z,96919.84
2023-03-18T08:17:07.402Z,96926.78
2023-03-18T08:20:09.826Z,96926.97
2023-03-18T08:23:11.653Z,96924.75
2023-03-18T08:26:13.405Z,96926.91
2023-03-18T08:29:14.904Z,96929.50
2023-03-18T08:32:16.768Z,96936.97
2023-03-18T08:35:20.957Z,96928.50
2023-03-18T08:38:23.854Z,96926.91
2023-03-18T08:41:26.093Z,96919.13
2023-03-18T08:44:27.673Z,96916.34
2023-03-18T08:47:29.535Z,96915.91
2023-03-18T08:50:31.193Z,96919.03
2023-03-18T08:53:32.713Z,96916.78
2023-03-18T08:56:34.287Z,96916.47
2023-03-18T08:59:36.596Z,96899.91
2023-03-18T09:02:38.244Z,96896.53
2023-03-18T09:05:40.259Z,96883.59
2023-03-18T09:08:42.580Z,96894.16
2023-03-18T09:11:46.376Z,96897.31
2023-03-18T09:14:48.036Z,96888.53
2023-03-18T09:18:07.827Z,96886.72
2023-03-18T09:21:12.044Z,96884.53
2023-03-18T09:24:13.617Z,96874.59
2023-03-18T09:27:15.140Z,96875.47
2023-03-18T09:30:16.647Z,96866.22
2023-03-18T09:33:18.649Z,96866.19
2023-03-18T09:36:20.237Z,96870.00
2023-03-18T09:39:22.007Z,96867.66
2023-03-18T09:42:32.174Z,96875.69
2023-03-18T09:45:44.713Z,96865.66
2023-03-18T09:48:56.861Z,96873.09
2023-03-18T09:52:16.565Z,96865.78
2023-03-18T09:55:30.349Z,96861.03
2023-03-18T09:58:44.161Z,96856.34
2023-03-18T10:01:49.061Z,96846.28
2023-03-18T10:04:57.468Z,96857.41
2023-03-18T10:08:07.743Z,96850.84
2023-03-18T10:11:31.092Z,96859.47
2023-03-18T10:14:39.988Z,96851.47
2023-03-18T10:17:49.240Z,96868.38
2023-03-18T10:21:02.967Z,96862.44
2023-03-18T10:24:35.916Z,96860.88
2023-03-18T10:27:49.236Z,96864.59
2023-03-18T10:31:26.207Z,96857.75
2023-03-18T10:34:40.332Z,96849.84
2023-03-18T10:38:02.305Z,96852.47
2023-03-18T10:41:36.543Z,96853.06
2023-03-18T10:44:41.488Z,96840.25
2023-03-18T10:47:49.403Z,96837.16
2023-03-18T10:51:19.992Z,96835.31
2023-03-18T10:54:27.150Z,96835.34
2023-03-18T10:57:28.690Z,96842.13
2023-03-18T11:00:33.830Z,96828.59
2023-03-18T11:03:41.398Z,96839.09
2023-03-18T11:07:18.693Z,96836.81
2023-03-18T11:10:25.853Z,96839.28
2023-03-18T11:13:27.471Z,96835.38
2023-03-18T11:16:51.825Z,96831.66
2023-03-18T11:20:10.697Z,96832.81
2023-03-18T11:23:20.542Z,96834.94
2023-03-18T11:26:27.304Z,96838.94
2023-03-18T11:29:34.795Z,96839.81
2023-03-18T11:32:37.116Z,96836.88
2023-03-18T11:36:18.567Z,96836.13
2023-03-18T11:39:20.152Z,96831.22
2023-03-18T11:42:22.516Z,96821.97
2023-03-18T11:45:56.156Z,96823.59
2023-03-18T11:48:59.371Z,96819.81
2023-03-18T11:52:28.958Z,96822.56
2023-03-18T11:55:33.972Z,96816.16
2023-03-18T11:59:01.856Z,96815.91
2023-03-18T12:02:24.130Z,96810.63
2023-03-18T12:06:02.391Z,96804.50
2023-03-18T12:09:22.765Z,96807.78
2023-03-18T12:12:34.313Z,96799.16
2023-03-18T12:15:42.631Z,96788.09
2023-03-18T12:18:50.940Z,96796.50
2023-03-18T12:22:02.290Z,96795.88
2023-03-18T12:25:20.634Z,96788.25
2023-03-18T12:29:03.906Z,96783.53
2023-03-18T12:32:23.984Z,96786.88
2023-03-18T12:35:45.779Z,96792.25
2023-03-18T12:39:08.637Z,96786.06
2023-03-18T12:42:12.167Z,96782.56
2023-03-18T12:45:20.760Z,96774.31
2023-03-18T12:48:43.022Z,96777.94
2023-03-18T12:51:54.175Z,96772.91
2023-03-18T12:55:04.884Z,96786.16
2023-03-18T12:58:18.080Z,96777.47
2023-03-18T13:01:32.442Z,96769.97
2023-03-18T13:04:38.517Z,96776.13
2023-03-18T13:08:00.590Z,96766.44
2023-03-18T13:11:12.256Z,96764.63
2023-03-18T13:14:40.936Z,96755.44
2023-03-18T13:17:44.942Z,96764.34
2023-03-18T13:20:47.227Z,96759.66
2023-03-18T13:24:26.047Z,96760.25
2023-03-18T13:27:41.727Z,96764.38
2023-03-18T13:31:20.394Z,96760.06
2023-03-18T13:34:49.910Z,96758.44
2023-03-18T13:38:00.574Z,96756.56
2023-03-18T13:41:22.420Z,96752.19
2023-03-18T13:44:33.956Z,96750.53
2023-03-18T13:47:40.554Z,96754.47
2023-03-18T13:50:44.491Z,96742.19
2023-03-18T13:53:47.122Z,96742.66
2023-03-18T13:56:55.296Z,96732.38
2023-03-18T14:00:22.591Z,96729.91
2023-03-18T14:03:29.768Z,96732.75
2023-03-18T14:06:34.433Z,96730.06
2023-03-18T14:10:18.274Z,96726.41
2023-03-18T14:13:28.345Z,96722.91
2023-03-18T14:16:37.706Z,96722.09
2023-03-18T14:19:39.403Z,96719.66
2023-03-18T14:22:41.387Z,96722.91
2023-03-18T14:25:43.800Z,96719.47
2023-03-18T14:28:48.962Z,96717.25
2023-03-18T14:31:59.421Z,96718.09
2023-03-18T14:35:28.060Z,96719.94
2023-03-18T14:38:46.623Z,96713.22
2023-03-18T14:41:52.290Z,96713.03
2023-03-18T14:44:56.046Z,96705.28
2023-03-18T14:47:58.543Z,96701.13
2023-03-18T14:51:19.501Z,96705.81
2023-03-18T14:54:25.022Z,96713.47
2023-03-18T14:57:26.947Z,96708.38
2023-03-18T15:00:32.314Z,96702.31
2023-03-18T15:03:34.350Z,96711.28
2023-03-18T15:06:39.099Z,96714.03
2023-03-18T15:09:43.491Z,96711.38
2023-03-18T15:12:56.393Z,96705.97
2023-03-18T15:15:58.036Z,96706.44
2023-03-18T15:18:59.576Z,96711.41
2023-03-18T15:22:04.692Z,96715.94
2023-03-18T15:25:08.497Z,96712.34
2023-03-18T15:28:19.412Z,96718.63
2023-03-18T15:31:41.302Z,96716.31
2023-03-18T15:34:45.911Z,96718.00
2023-03-18T15:38:03.708Z,96711.50
2023-03-18T15:41:12.088Z,96715.31
2023-03-18T15:44:16.748Z,96714.22
2023-03-18T15:47:28.634Z,96708.44
2023-03-18T15:50:33.870Z,96710.31
2023-03-18T15:53:47.819Z,96708.06
2023-03-18T15:56:51.666Z,96708.34
2023-03-18T15:59:54.446Z,96711.25
2023-03-18T16:02:55.901Z,96703.91
2023-03-18T16:05:58.260Z,96715.00
2023-03-18T16:09:00.799Z,96717.06
2023-03-18T16:12:13.042Z,96718.34
2023-03-18T16:15:21.999Z,96723.22
2023-03-18T16:18:23.586Z,96714.84
2023-03-18T16:21:25.583Z,96718.06
2023-03-18T16:24:27.504Z,96718.53
2023-03-18T16:27:31.824Z,96715.41
2023-03-18T16:30:35.065Z,96725.97
2023-03-18T16:33:36.635Z,96726.50
2023-03-18T16:36:38.398Z,96733.06
2023-03-18T16:39:39.934Z,96726.63
2023-03-18T16:42:41.974Z,96737.97
2023-03-18T16:45:43.903Z,96748.19
2023-03-18T16:48:45.428Z,96742.00
2023-03-18T16:51:47.681Z,96740.13
2023-03-18T16:54:49.140Z,96747.13
2023-03-18T16:57:58.025Z,96750.59
2023-03-18T17:00:59.966Z,96751.41
2023-03-18T17:04:06.180Z,96761.41
2023-03-18T17:07:08.032Z,96774.38
2023-03-18T17:10:11.381Z,96761.16
2023-03-18T17:13:28.558Z,96742.00
2023-03-18T17:16:32.039Z,96753.97
2023-03-18T17:19:35.121Z,96760.47
2023-03-18T17:22:36.639Z,96769.34
2023-03-18T17:25:38.167Z,96767.91
2023-03-18T17:28:45.295Z,96776.28
2023-03-18T17:31:46.754Z,96781.47
2023-03-18T17:34:51.244Z,96796.78
2023-03-18T17:37:54.604Z,96789.72
2023-03-18T17:40:56.617Z,96792.09
2023-03-18T17:43:58.181Z,96787.56
2023-03-18T17:46:59.706Z,96776.50
2023-03-18T17:50:01.479Z,96771.66
2023-03-18T17:53:03.072Z,96778.81
2023-03-18T17:56:06.798Z,96776.16
2023-03-18T17:59:19.483Z,96790.84
2023-03-18T18:02:21.191Z,96789.97
2023-03-18T18:05:23.167Z,96786.50
2023-03-18T18:08:25.956Z,96783.09
2023-03-18T18:11:32.476Z,96787.91
2023-03-18T18:14:34.370Z,96798.47
2023-03-18T18:17:36.122Z,96802.69
2023-03-18T18:20:38.047Z,96801.53
2023-03-18T18:23:40.109Z,96809.59
2023-03-18T18:26:41.735Z,96808.03
2023-03-18T18:29:45.985Z,96802.78
2023-03-18T18:32:47.917Z,96803.28
2023-03-18T18:35:49.492Z,96810.00
2023-03-18T18:38:51.021Z,96803.50
2023-03-18T18:41:52.943Z,96801.97
2023-03-18T18:44:54.629Z,96815.34
2023-03-18T18:47:57.339Z,96821.50
2023-03-18T18:51:00.139Z,96816.75
2023-03-18T18:54:02.418Z,96819.63
2023-03-18T18:57:03.996Z,96824.59
2023-03-18T19:00:11.410Z,96823.25
2023-03-18T19:03:18.341Z,96831.53
2023-03-18T19:06:29.232Z,96840.16
2023-03-18T19:09:31.304Z,96841.09
2023-03-18T19:12:32.826Z,96828.31
2023-03-18T19:15:34.890Z,96832.09
2023-03-18T19:18:41.391Z,96839.41
2023-03-18T19:21:43.237Z,96840.97
2023-03-18T19:24:49.385Z,96853.72
2023-03-18T19:27:52.561Z,96872.09
2023-03-18T19:30:54.554Z,96867.44
2023-03-18T19:33:56.746Z,96730.06
2023-03-18T19:36:58.490Z,96644.63
2023-03-18T19:40:09.698Z,96447.84
2023-03-18T19:43:16.555Z,96067.41
2023-03-18T19:46:23.582Z,95847.56
2023-03-18T19:49:37.529Z,96853.41
2023-03-18T19:52:39.914Z,96860.13
2023-03-18T19:55:42.173Z,96862.75
2023-03-18T19:58:43.720Z,96871.44
2023-03-18T20:01:45.414Z,96870.16
2023-03-18T20:04:47.899Z,96868.22
2023-03-18T20:07:50.486Z,96873.50
2023-03-18T20:10:52.022Z,96876.84
2023-03-18T20:13:53.597Z,96883.69
2023-03-18T20:16:57.202Z,96873.09
2023-03-18T20:20:01.368Z,96884.97
2023-03-18T20:23:08.822Z,96879.78
2023-03-18T20:26:11.942Z,96882.78
2023-03-18T20:29:19.471Z,96893.44
2023-03-18T20:32:21.029Z,96892.09
2023-03-18T20:35:27.299Z,96900.84
2023-03-18T20:38:43.859Z,96903.53
2023-03-18T20:41:45.460Z,96902.34
2023-03-18T20:44:46.993Z,96910.06
2023-03-18T20:47:49.424Z,96914.28
2023-03-18T20:50:52.312Z,96911.66
2023-03-18T20:53:53.884Z,96914.03
2023-03-18T20:56:55.785Z,96908.84
2023-03-18T20:59:57.987Z,96916.47
2023-03-18T21:03:01.956Z,96920.00
2023-03-18T21:06:03.998Z,96915.00
2023-03-18T21:09:07.043Z,96917.84
2023-03-18T21:12:15.776Z,96919.22
2023-03-18T21:15:21.238Z,96913.19
2023-03-18T21:18:22.750Z,96921.91
2023-03-18T21:21:31.256Z,96911.75
2023-03-18T21:24:32.943Z,96910.03
2023-03-18T21:27:34.637Z,96918.56
2023-03-18T21:30:36.268Z,96917.50
2023-03-18T21:33:38.745Z,96924.00
2023-03-18T21:36:40.505Z,96916.53
2023-03-18T21:39:42.784Z,96913.22
2023-03-18T21:42:46.126Z,96912.91
2023-03-18T21:45:50.321Z,96918.47
2023-03-18T21:48:52.209Z,96922.81
2023-03-18T21:51:53.741Z,96922.00
2023-03-18T21:54:55.356Z,96920.63
2023-03-18T21:57:56.866Z,96923.03
2023-03-18T22:00:59.779Z,96918.72
2023-03-18T22:04:01.304Z,96914.53
2023-03-18T22:07:02.963Z,96922.22
2023-03-18T22:10:06.755Z,96910.22
2023-03-18T22:13:24.896Z,96903.03
2023-03-18T22:16:26.628Z,96912.03
2023-03-18T22:19:28.189Z,96905.53
2023-03-18T22:22:34.889Z,96912.66
2023-03-18T22:25:36.931Z,96919.72
2023-03-18T22:28:38.448Z,96915.88
2023-03-18T22:31:41.496Z,96914.03
2023-03-18T22:34:43.029Z,96914.97
2023-03-18T22:37:45.738Z,96915.78
2023-03-18T22:40:50.508Z,96922.31
2023-03-18T22:43:52.091Z,96907.50
2023-03-18T22:46:53.636Z,96922.28
2023-03-18T22:49:55.306Z,96935.91
2023-03-18T22:53:08.234Z,96937.97
2023-03-18T22:56:16.545Z,96932.41
2023-03-18T22:59:18.056Z,96948.91
2023-03-18T23:02:23.089Z,96939.84
2023-03-18T23:05:24.705Z,96940.78
2023-03-18T23:08:27.584Z,96937.75
2023-03-18T23:11:30.861Z,96935.91
2023-03-18T23:14:32.809Z,96952.75
2023-03-18T23:17:34.671Z,96944.84
2023-03-18T23:20:36.881Z,96949.72
2023-03-18T23:23:38.408Z,96944.97
2023-03-18T23:26:39.906Z,96954.72
2023-03-18T23:29:41.738Z,96952.31
2023-03-18T23:32:43.353Z,96943.56
2023-03-18T23:35:46.057Z,96951.47
2023-03-18T23:38:47.544Z,96957.41
2023-03-18T23:41:49.068Z,96951.59
2023-03-18T23:44:50.553Z,96962.75
2023-03-18T23:47:52.337Z,96962.16
2023-03-18T23:50:53.905Z,96968.09
2023-03-18T23:53:55.697Z,96967.28
2023-03-18T23:56:57.160Z,96968.34
2023-03-18T23:59:58.672Z,96981.84
